Time;durP1;ratioP1;P1;durP2;ratioP2;P2;SDS_P1;SDS_P2;PMS_P1;PMS_P2;Temp;Humidity;BMP_temperature;BMP_pressure;BME280_temperature;BME280_humidity;BME280_pressure;Samples;Min_cycle;Max_cycle;Signal;HPM_P1;HPM_P2
2022/05/19 00:01:23;;;;;;;2.10;1.23;;;;;;;12.28;82.43;100093.38;6096997;23;20607;-88
2022/05/19 00:03:48;;;;;;;7.43;2.03;;;;;;;12.23;82.66;100092.72;6095793;23;20495;-88
2022/05/19 00:06:14;;;;;;;4.43;1.40;;;;;;;12.19;82.63;100089.34;6095637;23;20195;-88
2022/05/19 00:08:40;;;;;;;4.33;1.77;;;;;;;12.13;83.15;100086.16;6095786;23;20152;-88
2022/05/19 00:11:10;;;;;;;2.43;1.50;;;;;;;12.13;83.33;100089.63;6097303;23;20498;-88
2022/05/19 00:13:36;;;;;;;3.73;1.47;;;;;;;12.12;83.29;100094.94;6096964;23;20145;-87
2022/05/19 00:16:01;;;;;;;2.97;1.50;;;;;;;12.06;83.07;100085.56;6097582;23;20240;-90
2022/05/19 00:18:27;;;;;;;2.63;1.40;;;;;;;12.13;82.38;100089.63;6095773;23;20164;-88
2022/05/19 00:20:53;;;;;;;3.90;1.30;;;;;;;12.00;82.18;100082.34;6097371;23;20588;-88
2022/05/19 00:23:19;;;;;;;1.90;1.27;;;;;;;12.13;81.71;100079.09;6095749;23;20572;-87
2022/05/19 00:25:45;;;;;;;2.27;1.47;;;;;;;11.94;81.57;100080.84;6097209;23;20180;-87
2022/05/19 00:28:10;;;;;;;3.27;1.50;;;;;;;11.93;81.33;100081.75;6096961;23;20215;-88
2022/05/19 00:30:37;;;;;;;3.17;1.97;;;;;;;12.03;80.96;100085.69;6097237;23;20153;-88
2022/05/19 00:33:03;;;;;;;3.40;1.93;;;;;;;12.05;80.65;100081.25;6097300;23;20149;-88
2022/05/19 00:35:29;;;;;;;2.27;0.83;;;;;;;12.01;80.30;100084.91;6097680;23;20190;-90
2022/05/19 00:37:55;;;;;;;2.57;1.47;;;;;;;11.95;80.52;100085.16;6098657;23;20156;-88
2022/05/19 00:40:24;;;;;;;3.63;1.57;;;;;;;11.92;80.86;100081.84;6098696;23;20160;-91
2022/05/19 00:42:50;;;;;;;3.17;1.40;;;;;;;11.89;81.59;100089.84;6098773;23;20152;-92
2022/05/19 00:46:02;;;;;;;2.40;1.30;;;;;;;11.65;83.06;100087.31;6097865;23;20248;-91
2022/05/19 00:48:50;;;;;;;4.40;1.60;;;;;;;11.81;82.99;100076.19;6094350;23;20251;-90
2022/05/19 00:51:18;;;;;;;3.63;1.53;;;;;;;11.79;82.81;100076.25;6099368;23;20137;-92
2022/05/19 00:53:54;;;;;;;2.73;1.30;;;;;;;12.01;81.72;100074.41;6097415;23;20232;-91
2022/05/19 00:56:44;;;;;;;10.83;3.93;;;;;;;11.83;81.66;100082.22;6097537;23;20158;-93
2022/05/19 00:59:25;;;;;;;2.57;1.70;;;;;;;11.99;81.59;100075.38;6097652;23;20206;-92
2022/05/19 01:01:55;;;;;;;3.47;1.50;;;;;;;11.81;82.55;100077.03;6098761;23;20140;-93
2022/05/19 01:04:39;;;;;;;3.70;1.80;;;;;;;11.78;84.13;100076.31;6097295;23;20156;-92
2022/05/19 01:07:28;;;;;;;6.43;1.43;;;;;;;11.87;84.26;100081.19;6098620;23;20176;-92
2022/05/19 01:09:57;;;;;;;4.57;1.57;;;;;;;11.98;83.37;100073.66;6097649;23;20147;-92
2022/05/19 01:12:28;;;;;;;4.50;1.40;;;;;;;11.82;84.30;100073.47;6099125;23;20227;-93
2022/05/19 01:15:06;;;;;;;5.40;1.63;;;;;;;11.82;84.53;100085.78;6098338;23;20219;-93
2022/05/19 01:17:35;;;;;;;6.37;3.13;;;;;;;11.96;84.81;100086.03;6098888;23;20466;-93
2022/05/19 01:20:11;;;;;;;2.27;1.50;;;;;;;12.21;83.11;100086.69;6098681;23;20157;-95
2022/05/19 01:23:57;;;;;;;2.70;1.50;;;;;;;12.00;83.67;100082.34;6098970;23;20151;-94
2022/05/19 01:29:30;;;;;;;3.33;1.97;;;;;;;12.19;81.88;100088.50;5982803;24;20626;-94
2022/05/19 01:32:03;;;;;;;5.40;1.60;;;;;;;12.07;82.10;100089.91;5959734;24;20151;-92
2022/05/19 01:37:23;;;;;;;4.33;1.90;;;;;;;12.04;81.63;100078.66;5982767;24;20583;-94
2022/05/19 01:40:02;;;;;;;2.97;1.60;;;;;;;11.93;81.25;100081.75;5984506;23;20499;-92
2022/05/19 01:43:00;;;;;;;5.23;1.83;;;;;;;12.00;80.00;100080.56;6075537;23;20167;-92
2022/05/19 01:46:10;;;;;;;3.00;1.23;;;;;;;11.96;78.83;100080.75;6098946;23;20132;-93
2022/05/19 01:49:00;;;;;;;3.73;1.07;;;;;;;11.86;78.71;100082.94;6038972;23;20177;-92
2022/05/19 01:51:38;;;;;;;3.67;1.67;;;;;;;11.85;79.12;100083.00;6093999;23;20160;-92
2022/05/19 01:54:15;;;;;;;2.60;1.30;;;;;;;11.87;79.44;100087.25;6097320;23;20140;-93
2022/05/19 01:57:18;;;;;;;2.50;0.97;;;;;;;11.84;79.27;100086.56;6097096;23;20218;-93
2022/05/19 01:59:59;;;;;;;2.07;1.07;;;;;;;11.87;78.73;100086.44;6043924;23;20184;-92
2022/05/19 02:02:49;;;;;;;7.23;2.00;;;;;;;11.88;79.18;100090.75;6043747;23;20149;-90
2022/05/19 02:05:19;;;;;;;0.90;0.60;;;;;;;11.95;78.47;100089.59;6098571;23;20569;-93
2022/05/19 02:07:50;;;;;;;9.77;1.07;;;;;;;11.82;78.44;100088.41;6098393;23;20177;-92
2022/05/19 02:10:20;;;;;;;2.37;1.30;;;;;;;11.68;79.20;100092.47;6096874;23;20144;-93
2022/05/19 02:12:49;;;;;;;2.13;0.97;;;;;;;11.66;79.50;100094.25;6097972;23;20215;-93
2022/05/19 02:15:18;;;;;;;1.83;1.03;;;;;;;11.48;79.79;100095.00;6096649;23;20156;-94
2022/05/19 02:17:46;;;;;;;2.37;1.17;;;;;;;11.66;79.41;100094.25;6096894;23;20156;-93
2022/05/19 02:20:15;;;;;;;1.50;0.50;;;;;;;11.48;80.51;100088.91;6096524;23;20244;-91
2022/05/19 02:22:43;;;;;;;1.33;0.80;;;;;;;11.57;80.77;100084.13;6096719;23;20247;-93
2022/05/19 02:25:17;;;;;;;1.73;1.13;;;;;;;11.54;81.06;100093.91;6096489;23;20261;-92
2022/05/19 02:27:52;;;;;;;2.33;1.13;;;;;;;11.65;81.25;100084.69;6097684;23;20186;-92
2022/05/19 02:30:25;;;;;;;1.20;1.00;;;;;;;11.66;81.49;100091.63;6096496;23;20179;-92
2022/05/19 02:32:50;;;;;;;2.57;1.50;;;;;;;11.68;82.09;100087.22;6097653;23;20556;-93
2022/05/19 02:35:17;;;;;;;2.37;1.30;;;;;;;11.81;82.75;100087.53;6096591;23;20230;-91
2022/05/19 02:37:43;;;;;;;3.30;1.63;;;;;;;11.71;84.05;100087.06;6097879;23;20504;-92
2022/05/19 02:40:11;;;;;;;3.97;1.20;;;;;;;11.70;83.92;100095.88;6097519;23;20174;-90
2022/05/19 02:42:38;;;;;;;2.90;1.83;;;;;;;11.49;85.01;100098.50;6097477;23;20176;-88
2022/05/19 02:45:04;;;;;;;2.47;1.57;;;;;;;11.52;84.53;100091.34;6097519;23;20218;-89
2022/05/19 02:47:29;;;;;;;2.47;1.33;;;;;;;11.59;84.40;100084.91;6097456;23;20184;-94
2022/05/19 02:49:55;;;;;;;2.97;1.40;;;;;;;11.66;84.67;100093.41;6097530;23;20457;-89
2022/05/19 02:52:20;;;;;;;4.00;2.13;;;;;;;11.64;84.41;100101.34;6097425;23;20642;-89
2022/05/19 02:54:46;;;;;;;3.20;1.47;;;;;;;11.69;83.49;100102.03;6096286;23;20574;-90
2022/05/19 02:57:11;;;;;;;2.57;1.70;;;;;;;11.68;83.41;100108.22;6096149;23;20157;-90
2022/05/19 02:59:37;;;;;;;2.33;1.23;;;;;;;11.60;83.52;100105.03;6097340;23;20606;-93
2022/05/19 03:02:03;;;;;;;2.80;1.30;;;;;;;11.39;82.27;100105.91;6096169;23;20163;-91
2022/05/19 03:04:29;;;;;;;2.93;0.63;;;;;;;11.29;80.80;100107.19;6097561;23;20156;-90
2022/05/19 03:06:54;;;;;;;2.33;1.67;;;;;;;11.48;80.12;100110.75;6097339;23;20638;-90
2022/05/19 03:09:21;;;;;;;1.37;0.63;;;;;;;11.46;80.04;100106.50;6096127;23;20163;-91
2022/05/19 03:11:47;;;;;;;2.90;0.90;;;;;;;11.50;80.09;100111.53;6097326;23;20159;-90
2022/05/19 03:14:13;;;;;;;3.93;1.20;;;;;;;11.55;79.50;100114.88;6097246;23;20207;-91
2022/05/19 03:16:39;;;;;;;1.63;0.80;;;;;;;11.52;78.58;100108.88;6097283;23;20144;-89
2022/05/19 03:19:05;;;;;;;1.83;0.80;;;;;;;11.36;77.70;100115.66;6097631;23;20167;-90
2022/05/19 03:21:31;;;;;;;3.77;1.23;;;;;;;11.45;76.80;100116.13;6097192;23;20149;-89
2022/05/19 03:23:57;;;;;;;1.63;0.83;;;;;;;11.54;76.47;100113.16;6097174;23;20148;-89
2022/05/19 03:26:22;;;;;;;1.53;0.70;;;;;;;11.57;77.27;100110.41;6097140;23;20177;-89
2022/05/19 03:28:48;;;;;;;8.70;1.20;;;;;;;11.62;77.86;100113.69;6095910;23;20599;-89
2022/05/19 03:31:13;;;;;;;1.43;0.70;;;;;;;11.38;80.66;100119.94;6097199;23;20163;-90
2022/05/19 03:33:39;;;;;;;2.53;1.07;;;;;;;11.46;81.57;100123.09;6097454;23;20174;-89
2022/05/19 03:36:05;;;;;;;2.03;0.90;;;;;;;11.60;80.91;100119.91;6097451;23;20165;-89
2022/05/19 03:38:31;;;;;;;3.73;1.50;;;;;;;11.53;81.58;100116.66;6097196;23;20162;-89
2022/05/19 03:40:56;;;;;;;2.13;1.10;;;;;;;11.43;82.67;100123.22;6097184;23;20152;-88
2022/05/19 03:43:25;;;;;;;4.50;1.00;;;;;;;11.27;83.14;100130.00;6097170;23;20589;-91
2022/05/19 03:45:50;;;;;;;2.70;1.07;;;;;;;11.35;83.19;100135.78;6095928;23;20165;-90
2022/05/19 03:48:16;;;;;;;2.70;1.20;;;;;;;11.57;81.05;100136.66;6097068;23;20149;-89
2022/05/19 03:50:46;;;;;;;3.30;1.60;;;;;;;11.62;79.29;100129.44;6096934;23;20156;-90
2022/05/19 03:53:11;;;;;;;2.93;1.03;;;;;;;11.66;78.12;100138.88;6095921;23;20291;-91
2022/05/19 03:55:37;;;;;;;3.13;1.20;;;;;;;11.50;77.79;100137.78;6097126;23;20176;-91
2022/05/19 03:58:04;;;;;;;1.73;1.07;;;;;;;11.51;77.10;100142.16;6097232;23;20221;-91
2022/05/19 04:00:30;;;;;;;2.53;1.03;;;;;;;11.67;76.86;100134.50;6095979;23;20156;-89
2022/05/19 04:02:56;;;;;;;1.67;0.97;;;;;;;11.73;76.01;100136.91;6097442;23;20153;-90
2022/05/19 04:05:21;;;;;;;2.07;0.90;;;;;;;11.65;76.06;100149.47;6097071;23;20239;-88
2022/05/19 04:07:47;;;;;;;1.70;1.00;;;;;;;11.68;75.35;100144.09;6097318;23;20234;-90
2022/05/19 04:10:12;;;;;;;3.20;1.10;;;;;;;11.68;74.69;100149.34;6097654;23;20473;-90
2022/05/19 04:12:39;;;;;;;3.53;1.10;;;;;;;11.71;74.99;100150.09;6099315;23;20152;-90
2022/05/19 04:15:05;;;;;;;1.93;1.00;;;;;;;11.72;74.73;100156.19;6099398;23;20149;-91
2022/05/19 04:17:33;;;;;;;1.93;1.20;;;;;;;11.78;74.84;100149.84;6098897;23;20149;-91
2022/05/19 04:20:00;;;;;;;3.40;1.80;;;;;;;11.90;73.88;100157.22;6098548;23;20156;-90
2022/05/19 04:22:25;;;;;;;2.03;1.00;;;;;;;11.85;73.41;100156.53;6097845;23;20180;-92
2022/05/19 04:24:51;;;;;;;1.03;0.53;;;;;;;12.01;73.13;100155.00;6099186;23;20164;-89
2022/05/19 04:27:16;;;;;;;0.93;0.50;;;;;;;11.93;72.42;100154.47;6098851;23;20176;-93
2022/05/19 04:29:42;;;;;;;4.53;0.47;;;;;;;11.95;70.55;100163.16;6097805;23;20160;-94
2022/05/19 04:32:08;;;;;;;2.07;1.27;;;;;;;12.03;71.05;100168.91;6098776;23;20224;-90
2022/05/19 04:34:33;;;;;;;1.17;0.80;;;;;;;11.93;70.14;100170.22;6098888;23;20180;-92
2022/05/19 04:37:07;;;;;;;1.03;0.67;;;;;;;12.03;70.06;100175.03;6098818;23;20143;-94
2022/05/19 04:39:32;;;;;;;0.63;0.40;;;;;;;12.16;70.04;100173.59;6098827;23;20203;-91
2022/05/19 04:41:58;;;;;;;3.30;0.60;;;;;;;12.25;69.67;100169.72;6099079;23;20223;-91
2022/05/19 04:44:23;;;;;;;1.77;0.70;;;;;;;12.25;70.55;100170.59;6098776;23;20647;-91
2022/05/19 04:46:49;;;;;;;1.00;0.67;;;;;;;12.19;71.30;100169.97;6097791;23;20259;-92
2022/05/19 04:49:14;;;;;;;1.23;0.67;;;;;;;12.22;71.29;100175.97;6098471;23;20160;-92
2022/05/19 04:51:40;;;;;;;1.90;0.73;;;;;;;12.48;70.10;100174.84;6099443;23;20164;-91
2022/05/19 04:54:05;;;;;;;1.10;0.53;;;;;;;12.62;69.70;100167.22;6097603;23;20161;-93
2022/05/19 04:56:31;;;;;;;2.27;0.70;;;;;;;12.75;68.86;100178.03;6099054;23;20220;-92
2022/05/19 04:58:57;;;;;;;1.50;0.73;;;;;;;12.98;67.51;100174.34;6098719;23;20463;-93
2022/05/19 05:01:22;;;;;;;2.13;0.73;;;;;;;13.20;66.55;100173.34;6098769;23;20486;-93
2022/05/19 05:03:48;;;;;;;15.00;4.87;;;;;;;13.26;65.06;100180.09;6098961;23;20153;-92
2022/05/19 05:06:14;;;;;;;5.13;2.50;;;;;;;13.18;64.76;100175.16;6097461;23;20612;-91
2022/05/19 05:08:39;;;;;;;2.23;1.13;;;;;;;13.55;63.82;100175.13;6098527;23;20633;-93
2022/05/19 05:11:05;;;;;;;0.83;0.40;;;;;;;13.95;64.47;100166.13;6098998;23;20181;-91
2022/05/19 05:13:30;;;;;;;2.13;0.90;;;;;;;13.91;63.35;100164.59;6098855;23;20154;-91
2022/05/19 05:15:57;;;;;;;3.03;0.90;;;;;;;13.97;62.51;100163.41;6097502;23;20156;-92
2022/05/19 05:18:23;;;;;;;3.73;0.90;;;;;;;14.55;60.63;100169.22;6097374;23;20164;-92
2022/05/19 05:20:48;;;;;;;1.00;0.40;;;;;;;15.14;58.67;100164.25;6098304;23;20219;-91
2022/05/19 05:23:14;;;;;;;5.50;1.60;;;;;;;14.93;58.61;100173.34;6098516;23;20166;-92
2022/05/19 05:25:40;;;;;;;4.73;1.03;;;;;;;15.17;58.72;100172.00;6097636;23;20163;-92
2022/05/19 05:28:05;;;;;;;3.30;1.13;;;;;;;15.59;55.86;100160.03;6098312;23;20239;-93
2022/05/19 05:30:31;;;;;;;1.27;0.60;;;;;;;15.44;55.96;100163.47;6097358;23;20167;-91
2022/05/19 05:33:07;;;;;;;2.57;0.77;;;;;;;15.91;55.47;100159.00;6097316;23;20227;-89
2022/05/19 05:35:34;;;;;;;0.57;0.53;;;;;;;15.89;54.44;100163.53;6098354;23;20242;-91
2022/05/19 05:37:59;;;;;;;2.53;0.47;;;;;;;15.67;52.70;100171.00;6098646;23;20148;-91
2022/05/19 05:40:26;;;;;;;5.80;0.50;;;;;;;15.18;54.69;100175.50;6098182;23;20491;-90
2022/05/19 05:42:52;;;;;;;1.50;0.37;;;;;;;14.97;54.34;100174.88;6097164;23;20227;-92
2022/05/19 05:45:17;;;;;;;1.20;0.73;;;;;;;14.77;56.22;100175.09;6097088;23;20156;-91
2022/05/19 05:47:43;;;;;;;0.83;0.47;;;;;;;14.74;56.62;100178.75;6098085;23;20183;-93
2022/05/19 05:50:09;;;;;;;0.87;0.40;;;;;;;14.83;57.35;100176.56;6098173;23;20583;-92
2022/05/19 05:52:34;;;;;;;0.63;0.43;;;;;;;15.03;57.37;100181.63;6098234;23;20219;-93
2022/05/19 05:55:00;;;;;;;0.70;0.40;;;;;;;14.94;56.13;100180.31;6098179;23;20171;-92
2022/05/19 05:57:27;;;;;;;0.57;0.27;;;;;;;14.59;57.86;100176.94;6097148;23;20239;-92
2022/05/19 05:59:53;;;;;;;2.90;0.50;;;;;;;14.93;59.29;100183.91;6098612;23;20149;-93
2022/05/19 06:02:21;;;;;;;4.20;0.60;;;;;;;14.93;59.02;100178.63;6096955;23;20159;-92
2022/05/19 06:04:46;;;;;;;2.20;1.03;;;;;;;14.94;58.94;100180.31;6097952;23;20156;-92
2022/05/19 06:07:12;;;;;;;1.23;0.53;;;;;;;15.29;59.95;100176.63;6096670;23;20188;-92
2022/05/19 06:09:39;;;;;;;2.53;0.63;;;;;;;15.31;58.18;100185.31;6096843;23;20167;-92
2022/05/19 06:12:05;;;;;;;0.47;0.20;;;;;;;15.56;60.29;100170.75;6097205;23;20163;-92
2022/05/19 06:14:44;;;;;;;0.70;0.40;;;;;;;15.51;58.45;100180.75;6098021;23;20157;-95
2022/05/19 06:17:13;;;;;;;0.53;0.30;;;;;;;15.50;58.43;100179.03;6098205;23;20141;-93
2022/05/19 06:19:39;;;;;;;1.03;0.60;;;;;;;15.92;57.53;100179.22;6097386;23;20157;-92
2022/05/19 06:22:04;;;;;;;3.07;1.07;;;;;;;16.06;57.06;100176.66;6096717;23;20571;-91
2022/05/19 06:24:41;;;;;;;0.83;0.30;;;;;;;15.95;57.02;100171.13;6096785;23;20173;-92
2022/05/19 06:27:07;;;;;;;1.40;0.60;;;;;;;16.03;58.00;100182.13;6098267;23;20588;-93
2022/05/19 06:29:32;;;;;;;3.63;0.50;;;;;;;16.15;56.29;100180.53;6096775;23;20162;-92
2022/05/19 06:31:58;;;;;;;1.83;0.60;;;;;;;16.28;58.77;100173.56;6097518;23;20152;-92
2022/05/19 06:34:24;;;;;;;2.23;0.60;;;;;;;16.68;58.84;100174.72;6096707;23;20159;-93
2022/05/19 06:36:52;;;;;;;1.97;0.60;;;;;;;16.74;57.84;100171.69;6097650;23;20591;-93
2022/05/19 06:39:31;;;;;;;2.07;0.73;;;;;;;17.10;56.46;100180.00;6096747;23;20452;-92
2022/05/19 06:42:27;;;;;;;;;;;;;;;;;;;;;
2022/05/19 06:44:53;;;;;;;1.80;0.57;;;;;;;17.45;56.18;100170.66;6097695;23;20225;-92
2022/05/19 06:47:22;;;;;;;2.87;0.67;;;;;;;17.48;55.70;100180.22;6097759;23;20593;-93
2022/05/19 06:49:51;;;;;;;0.47;0.27;;;;;;;17.38;54.67;100187.91;6096633;23;20299;-91
2022/05/19 06:52:23;;;;;;;2.23;0.57;;;;;;;17.63;55.24;100185.44;6096984;23;20182;-92
2022/05/19 06:54:51;;;;;;;1.73;0.77;;;;;;;18.04;56.93;100187.16;6096557;23;20145;-93
2022/05/19 06:57:19;;;;;;;1.63;0.67;;;;;;;18.14;51.99;100188.22;6096780;23;20168;-93
2022/05/19 06:59:45;;;;;;;1.33;0.60;;;;;;;17.92;53.01;100193.28;6096687;23;20160;-93
2022/05/19 07:02:11;;;;;;;1.57;0.70;;;;;;;18.37;54.42;100193.69;6096544;23;20187;-92
2022/05/19 07:04:41;;;;;;;0.93;0.53;;;;;;;18.25;50.35;100198.97;6097622;23;20160;-93
2022/05/19 07:07:07;;;;;;;2.40;0.60;;;;;;;18.48;53.09;100195.66;6098065;23;20173;-93
2022/05/19 07:10:30;;;;;;;0.63;0.33;;;;;;;18.96;49.38;100192.28;6096363;23;20161;-92
2022/05/19 07:12:59;;;;;;;1.83;0.90;;;;;;;18.95;49.03;100197.69;6097924;23;20164;-92
2022/05/19 07:15:27;;;;;;;2.93;1.00;;;;;;;19.17;51.99;100197.03;6096374;23;20226;-92
2022/05/19 07:17:53;;;;;;;2.90;0.70;;;;;;;19.16;51.34;100203.28;6097469;23;20215;-91
2022/05/19 07:23:04;;;;;;;2.53;0.83;;;;;;;19.79;49.57;100200.47;6097830;23;20151;-92
2022/05/19 07:25:29;;;;;;;1.47;0.63;;;;;;;19.82;50.14;100206.44;6097364;23;20218;-92
2022/05/19 07:27:55;;;;;;;2.00;0.93;;;;;;;19.77;51.33;100205.06;6097234;23;20189;-91
2022/05/19 07:30:20;;;;;;;4.00;0.90;;;;;;;20.07;46.41;100202.81;6097281;23;20148;-92
2022/05/19 07:32:46;;;;;;;5.87;2.37;;;;;;;20.26;46.70;100199.66;6097214;23;20174;-91
2022/05/19 07:35:14;;;;;;;1.33;0.70;;;;;;;20.52;47.02;100199.34;6095886;23;20172;-90
2022/05/19 07:37:42;;;;;;;2.13;0.63;;;;;;;20.61;45.30;100206.66;6097545;23;20207;-92
2022/05/19 07:40:08;;;;;;;0.50;0.30;;;;;;;20.80;44.73;100208.75;6096078;23;20221;-88
2022/05/19 07:42:34;;;;;;;1.17;0.40;;;;;;;21.12;46.52;100207.09;6098097;23;20210;-90
2022/05/19 07:45:00;;;;;;;1.60;0.50;;;;;;;21.26;41.76;100190.84;6099202;23;20190;-89
2022/05/19 07:47:31;;;;;;;1.33;0.53;;;;;;;21.04;41.14;100204.13;6099046;23;20512;-91
2022/05/19 07:49:57;;;;;;;2.40;0.40;;;;;;;21.21;44.70;100200.19;6099858;23;20211;-90
2022/05/19 07:52:23;;;;;;;1.17;0.40;;;;;;;21.18;43.85;100201.28;6098734;23;20576;-91
2022/05/19 07:54:49;;;;;;;3.03;0.40;;;;;;;21.30;42.75;100202.97;6099213;23;20152;-90
2022/05/19 07:57:15;;;;;;;2.37;0.40;;;;;;;21.25;39.85;100199.81;6099059;23;20159;-91
2022/05/19 07:59:40;;;;;;;3.20;0.50;;;;;;;21.24;39.96;100198.13;6099177;23;20481;-89
2022/05/19 08:02:07;;;;;;;1.20;0.60;;;;;;;21.25;42.62;100199.00;6099045;23;20152;-89
2022/05/19 08:04:33;;;;;;;0.80;0.63;;;;;;;21.36;39.07;100201.63;6099023;23;20149;-89
2022/05/19 08:06:59;;;;;;;1.23;0.60;;;;;;;21.22;37.31;100199.22;6099212;23;20176;-90
2022/05/19 08:18:23;;;;;;;1.33;0.50;;;;;;;21.17;37.40;100202.22;6099481;23;20140;-93
2022/05/19 08:20:58;;;;;;;1.80;0.47;;;;;;;21.09;39.17;100191.34;6091634;23;20247;-93
2022/05/19 08:23:30;;;;;;;2.70;0.50;;;;;;;21.51;39.23;100196.88;6099405;23;20140;-93
2022/05/19 08:25:57;;;;;;;0.40;0.30;;;;;;;21.77;37.34;100184.94;6099276;23;20145;-92
2022/05/19 08:28:29;;;;;;;1.53;0.47;;;;;;;21.68;41.79;100191.00;6099415;23;20156;-91
2022/05/19 08:31:01;;;;;;;2.00;0.73;;;;;;;21.93;37.92;100190.75;6098308;23;20594;-91
2022/05/19 08:33:31;;;;;;;0.77;0.27;;;;;;;22.11;38.41;100185.69;6097786;23;20155;-92
2022/05/19 08:35:56;;;;;;;2.77;0.83;;;;;;;22.16;35.93;100184.34;6098718;23;20247;-91
2022/05/19 08:38:44;;;;;;;1.53;0.47;;;;;;;21.96;33.16;100177.97;6097647;23;20188;-91
2022/05/19 08:41:26;;;;;;;3.27;0.50;;;;;;;22.07;36.36;100184.25;6099083;23;20129;-91
2022/05/19 08:44:36;;;;;;;1.50;0.40;;;;;;;22.05;36.03;100184.38;6099471;23;20141;-92
2022/05/19 08:48:07;;;;;;;3.30;0.40;;;;;;;21.87;35.66;100181.44;6095293;23;20184;-94
2022/05/19 08:51:12;;;;;;;1.80;0.40;;;;;;;21.53;36.92;100186.94;6068860;23;20176;-92
2022/05/19 08:53:46;;;;;;;4.63;0.30;;;;;;;21.89;36.04;100183.94;6046268;23;20163;-92
2022/05/19 08:56:26;;;;;;;1.20;0.40;;;;;;;22.20;35.53;100177.75;6098105;23;20148;-93
2022/05/19 08:59:08;;;;;;;1.23;0.60;;;;;;;22.39;37.63;100180.56;6097814;23;20184;-91
2022/05/19 09:01:47;;;;;;;1.10;0.50;;;;;;;22.44;34.95;100180.19;6098882;23;20162;-92
2022/05/19 09:04:34;;;;;;;2.37;0.57;;;;;;;22.73;37.11;100175.03;6099453;23;20195;-88
2022/05/19 09:10:22;;;;;;;2.27;1.23;;;;;;;22.40;38.03;100168.91;6099004;23;20220;-87
2022/05/19 09:12:55;;;;;;;1.30;0.50;;;;;;;22.52;37.15;100162.50;6097107;23;20572;-88
2022/05/19 09:15:23;;;;;;;0.93;0.37;;;;;;;22.54;36.43;100171.25;6098421;23;20207;-91
2022/05/19 09:20:46;;;;;;;3.40;0.90;;;;;;;22.15;37.89;100155.94;6098266;23;20163;-89
2022/05/19 09:23:22;;;;;;;1.10;0.40;;;;;;;22.13;35.98;100165.03;6098818;23;20160;-92
2022/05/19 09:25:58;;;;;;;1.77;0.50;;;;;;;22.56;38.16;100153.25;6098051;23;20156;-88
2022/05/19 09:28:23;;;;;;;2.37;0.53;;;;;;;22.77;37.64;100155.94;6098847;23;20152;-89
2022/05/19 09:31:00;;;;;;;0.60;0.30;;;;;;;22.90;35.55;100159.25;6098090;23;20160;-91
2022/05/19 09:33:37;;;;;;;1.27;0.50;;;;;;;23.13;34.33;100157.22;6121361;23;20491;-89
2022/05/19 09:36:11;;;;;;;1.67;0.40;;;;;;;23.14;34.32;100150.88;6098072;23;20468;-89
2022/05/19 09:38:45;;;;;;;3.33;0.43;;;;;;;23.28;34.92;100155.84;6098357;23;20141;-89
2022/05/19 09:41:22;;;;;;;1.50;0.30;;;;;;;23.33;35.92;100148.25;6098710;23;20136;-89
2022/05/19 09:44:09;;;;;;;;;;;;;;;;;;;;;
2022/05/19 09:46:50;;;;;;;1.07;0.57;;;;;;;23.39;35.37;100150.44;6097865;23;20255;-89
2022/05/19 09:49:44;;;;;;;1.97;0.60;;;;;;;23.39;35.23;100153.13;6098008;23;20171;-90
2022/05/19 09:52:17;;;;;;;1.13;0.37;;;;;;;23.53;37.06;100139.31;6098240;23;20197;-89
2022/05/19 09:54:51;;;;;;;2.23;0.50;;;;;;;23.59;38.11;100148.63;6098105;23;20173;-90
2022/05/19 09:57:22;;;;;;;0.77;0.40;;;;;;;23.87;33.55;100141.63;6096719;23;20482;-89
2022/05/19 09:59:50;;;;;;;1.33;0.37;;;;;;;23.97;34.75;100139.78;6098278;23;20137;-90
2022/05/19 10:02:17;;;;;;;0.70;0.30;;;;;;;24.21;34.47;100134.88;6097838;23;20156;-90
2022/05/19 10:05:00;;;;;;;2.30;0.30;;;;;;;24.32;31.52;100134.69;6096587;23;20249;-90
2022/05/19 10:07:36;;;;;;;3.30;0.60;;;;;;;24.09;33.38;100131.50;6096399;23;20211;-88
2022/05/19 10:10:15;;;;;;;1.20;0.50;;;;;;;24.39;34.49;100127.78;6097641;23;20221;-89
2022/05/19 10:12:48;;;;;;;2.17;0.53;;;;;;;24.29;33.41;100126.97;6096609;23;20479;-89
2022/05/19 10:15:18;;;;;;;1.03;0.40;;;;;;;24.36;33.18;100122.72;6096703;23;20168;-89
2022/05/19 10:17:50;;;;;;;0.80;0.37;;;;;;;24.25;32.17;100117.50;6097784;23;20160;-90
2022/05/19 10:20:30;;;;;;;1.27;0.87;;;;;;;24.54;35.27;100114.75;6096571;23;20153;-89
2022/05/19 10:23:14;;;;;;;4.77;0.90;;;;;;;24.77;35.20;100116.09;6096821;23;20292;-89
2022/05/19 10:26:15;;;;;;;1.03;0.33;;;;;;;25.08;32.45;100109.50;6098266;23;20144;-91
2022/05/19 10:32:50;;;;;;;0.70;0.23;;;;;;;24.77;33.42;100106.22;6067263;23;20188;-90
2022/05/19 10:35:20;;;;;;;4.20;0.60;;;;;;;24.91;33.35;100108.47;6067240;23;20190;-90
2022/05/19 10:38:27;;;;;;;2.73;0.50;;;;;;;24.76;33.88;100098.34;6092573;23;20203;-91
2022/05/19 10:41:16;;;;;;;0.50;0.20;;;;;;;24.83;32.79;100100.31;6093268;23;20160;-91
2022/05/19 10:43:57;;;;;;;2.13;0.30;;;;;;;24.97;32.99;100090.94;6097815;23;20152;-91
2022/05/19 10:46:36;;;;;;;1.33;0.40;;;;;;;25.38;31.27;100095.78;6096367;23;20242;-92
2022/05/19 10:49:24;;;;;;;0.47;0.20;;;;;;;25.14;31.44;100083.91;6097525;23;20141;-92
2022/05/19 10:52:02;;;;;;;0.97;0.40;;;;;;;24.99;31.40;100089.78;6096663;23;20663;-92
2022/05/19 10:54:42;;;;;;;2.87;0.60;;;;;;;25.28;33.43;100084.25;6096629;23;20156;-92
2022/05/19 10:58:06;;;;;;;;;;;;;;;;;;;;;
2022/05/19 11:00:40;;;;;;;2.80;0.70;;;;;;;25.83;30.75;100078.78;6093203;23;20224;-91
2022/05/19 11:03:40;;;;;;;2.67;0.63;;;;;;;25.52;32.05;100071.09;6096300;23;20164;-91
2022/05/19 11:06:38;;;;;;;0.93;0.40;;;;;;;25.58;33.79;100069.63;6097582;23;20140;-93
2022/05/19 11:13:03;;;;;;;0.40;0.30;;;;;;;25.42;31.54;100062.25;6058951;23;20180;-93
2022/05/19 11:15:39;;;;;;;1.23;0.43;;;;;;;25.28;31.83;100068.16;6066312;23;20470;-92
2022/05/19 11:19:16;;;;;;;;;;;;;;;;;;;;;
2022/05/19 11:21:56;;;;;;;0.70;0.40;;;;;;;25.94;30.43;100065.09;6036856;23;20248;-92
2022/05/19 11:24:38;;;;;;;1.20;0.40;;;;;;;25.97;30.88;100052.19;6093522;23;20235;-91
2022/05/19 11:27:44;;;;;;;1.20;0.40;;;;;;;26.27;31.30;100052.75;6114520;23;20186;-91
2022/05/19 11:30:19;;;;;;;2.37;0.60;;;;;;;26.34;31.33;100045.75;6119814;23;20461;-92
2022/05/19 11:32:50;;;;;;;1.13;0.57;;;;;;;26.28;29.66;100041.03;6127058;23;20147;-92
2022/05/19 11:35:46;;;;;;;0.50;0.30;;;;;;;26.23;30.56;100047.69;6125171;23;20231;-92
2022/05/19 11:39:32;;;;;;;1.27;0.50;;;;;;;25.88;29.86;100039.72;6127083;23;20159;-92
2022/05/19 11:42:22;;;;;;;0.60;0.40;;;;;;;25.71;30.43;100040.56;6034486;23;20196;-91
2022/05/19 11:44:47;;;;;;;1.27;0.30;;;;;;;25.35;30.08;100028.09;6037948;23;20231;-90
2022/05/19 11:56:35;;;;;;;3.90;0.63;;;;;;;25.79;31.38;100011.06;6097627;23;20304;-90
2022/05/19 11:59:00;;;;;;;1.73;0.40;;;;;;;25.93;32.69;100007.84;6095911;23;20156;-89
2022/05/19 12:01:32;;;;;;;1.90;0.40;;;;;;;25.93;31.14;100010.53;6097741;23;20167;-89
2022/05/19 12:04:29;;;;;;;1.80;0.60;;;;;;;25.64;29.92;100012.63;6120337;23;20219;-92
2022/05/19 12:08:10;;;;;;;1.13;0.40;;;;;;;25.74;30.50;100013.38;6097674;23;20168;-92
2022/05/19 12:10:46;;;;;;;2.47;0.53;;;;;;;26.15;30.51;99996.56;6068853;23;20171;-91
2022/05/19 12:13:12;;;;;;;1.03;0.53;;;;;;;25.75;29.52;100001.66;6120291;23;20152;-88
2022/05/19 12:15:50;;;;;;;0.83;0.40;;;;;;;26.00;29.16;99989.22;6097300;23;20536;-89
2022/05/19 12:18:24;;;;;;;8.10;0.50;;;;;;;25.90;29.97;99999.22;6097014;23;20140;-88
2022/05/19 12:21:12;;;;;;;1.33;0.40;;;;;;;26.15;30.26;99993.88;6096891;23;20159;-88
2022/05/19 12:23:42;;;;;;;1.33;0.47;;;;;;;26.12;30.00;99991.53;6119973;23;20203;-89
2022/05/19 12:26:19;;;;;;;0.57;0.27;;;;;;;26.12;29.32;99988.88;6097150;23;20148;-89
2022/05/19 12:28:52;;;;;;;1.23;0.40;;;;;;;26.01;28.94;99989.09;6097393;23;20158;-89
2022/05/19 12:34:03;;;;;;;0.40;0.30;;;;;;;25.71;29.61;99992.22;6099037;23;20155;-90
2022/05/19 12:37:04;;;;;;;2.77;0.70;;;;;;;25.70;30.40;99981.63;6098482;23;20199;-89
2022/05/19 12:39:41;;;;;;;1.00;0.30;;;;;;;26.29;29.15;99978.19;6097506;23;20140;-90
2022/05/19 12:42:18;;;;;;;4.00;0.27;;;;;;;26.23;27.67;99980.50;6099398;23;20215;-87
2022/05/19 12:44:51;;;;;;;1.03;0.40;;;;;;;26.31;29.33;99965.44;6099017;23;20150;-89